createdAt,value
2018-12-03T00:00:11.765Z,2.5
2018-12-03T00:05:08.595Z,2.4
2018-12-03T00:10:05.125Z,2.2
2018-12-03T00:15:02.131Z,2.4
2018-12-03T00:19:59.212Z,2
2018-12-03T00:24:56.346Z,2.4
2018-12-03T00:29:53.557Z,2.4
2018-12-03T00:34:50.426Z,2.3
2018-12-03T00:39:47.296Z,2.4
2018-12-03T00:44:44.195Z,2.4
2018-12-03T00:49:40.923Z,2.3
2018-12-03T00:54:38.116Z,2.3
2018-12-03T00:59:35.373Z,2.2
2018-12-03T01:04:32.440Z,2.3
2018-12-03T01:09:29.148Z,2.2
2018-12-03T01:14:26.224Z,2.2
2018-12-03T01:19:23.211Z,2.2
2018-12-03T01:24:20.067Z,2
2018-12-03T01:29:16.780Z,2
2018-12-03T01:34:13.801Z,1.9
2018-12-03T01:39:10.723Z,1.8
2018-12-03T01:44:07.969Z,1.9
2018-12-03T01:49:04.722Z,1.9
2018-12-03T01:54:02.014Z,1.9
2018-12-03T01:58:59.175Z,1.9
2018-12-03T02:03:56.221Z,1.8
2018-12-03T02:08:52.579Z,1.8
2018-12-03T02:13:49.652Z,1.8
2018-12-03T02:18:46.789Z,1.6
2018-12-03T02:23:43.742Z,1.5
2018-12-03T02:28:40.688Z,1.6
2018-12-03T02:33:37.305Z,1.4
2018-12-03T02:38:34.197Z,1.3
2018-12-03T02:43:31.118Z,1.2
2018-12-03T02:48:28.014Z,1.2
2018-12-03T02:53:25.096Z,1.2
2018-12-03T02:58:22.042Z,1.1
2018-12-03T03:03:18.801Z,0.5
2018-12-03T03:08:15.704Z,1.1
2018-12-03T03:13:12.545Z,1.1
2018-12-03T03:18:09.543Z,1.1
2018-12-03T03:23:06.729Z,1.2
2018-12-03T03:28:03.449Z,0.5
2018-12-03T03:33:00.348Z,1
2018-12-03T03:37:57.227Z,0.9
2018-12-03T03:42:54.307Z,1
2018-12-03T03:47:51.282Z,0.9
2018-12-03T03:52:48.593Z,0.8
2018-12-03T03:57:45.793Z,0.8
2018-12-03T04:02:42.834Z,0.7
2018-12-03T04:07:39.757Z,0.9
2018-12-03T04:12:36.600Z,0.8
2018-12-03T04:17:33.667Z,0.9
2018-12-03T04:22:30.832Z,1
2018-12-03T04:27:27.260Z,0.9
2018-12-03T04:32:24.156Z,0.8
2018-12-03T04:37:21.095Z,-1.8
2018-12-03T04:42:19.034Z,0.8
2018-12-03T04:47:15.939Z,0.7
2018-12-03T04:52:12.950Z,0.7
2018-12-03T04:57:09.343Z,0.8
2018-12-03T05:02:06.303Z,0.8
2018-12-03T05:07:03.147Z,0.9
2018-12-03T05:12:00.417Z,0.9
2018-12-03T05:16:57.394Z,0.8
2018-12-03T05:21:54.560Z,0.8
2018-12-03T05:26:51.533Z,0.9
2018-12-03T05:31:48.441Z,0.9
2018-12-03T05:36:45.214Z,0.9
2018-12-03T05:41:42.301Z,0.9
2018-12-03T05:46:39.110Z,1
2018-12-03T05:51:35.982Z,0.9
2018-12-03T05:56:32.907Z,1
2018-12-03T06:01:29.934Z,0.9
2018-12-03T06:06:26.841Z,0.9
2018-12-03T06:11:23.146Z,1
2018-12-03T06:16:20.109Z,1.1
2018-12-03T06:21:16.761Z,1.1
2018-12-03T06:26:13.670Z,1.3
2018-12-03T06:31:10.657Z,1.1
2018-12-03T06:36:07.666Z,1.1
2018-12-03T06:41:04.245Z,1.1
2018-12-03T06:46:01.128Z,0.8
2018-12-03T06:50:57.936Z,1
2018-12-03T06:55:54.756Z,0.9
2018-12-03T07:00:51.745Z,1.2
2018-12-03T07:05:48.550Z,1.2
2018-12-03T07:10:45.486Z,1.2
2018-12-03T07:15:42.127Z,1.2
2018-12-03T07:20:39.065Z,1.1
2018-12-03T07:25:35.589Z,0.9
2018-12-03T07:30:32.340Z,1
2018-12-03T07:35:29.356Z,1
2018-12-03T07:40:25.198Z,1
2018-12-03T07:45:22.102Z,1
2018-12-03T07:50:19.171Z,1
2018-12-03T07:55:16.315Z,1
2018-12-03T08:00:13.342Z,1
2018-12-03T08:05:09.751Z,0.4
2018-12-03T08:10:06.570Z,1.1
2018-12-03T08:15:03.672Z,1.2
2018-12-03T08:20:00.668Z,1.4
2018-12-03T08:24:57.369Z,1.4
2018-12-03T08:29:54.322Z,1.5
2018-12-03T08:34:51.141Z,1.5
2018-12-03T08:39:47.587Z,1.5
2018-12-03T08:44:44.438Z,1.5
2018-12-03T08:49:41.676Z,1.6
2018-12-03T08:54:38.410Z,1.7
2018-12-03T08:59:35.508Z,1.7
2018-12-03T09:04:32.156Z,1.8
2018-12-03T09:09:28.949Z,1.8
2018-12-03T09:14:25.794Z,1.9
2018-12-03T09:19:22.747Z,1.9
2018-12-03T09:24:19.278Z,1.9
2018-12-03T09:29:16.189Z,2
2018-12-03T09:34:13.856Z,2
2018-12-03T09:39:10.776Z,2.1
2018-12-03T09:44:07.768Z,2.1
2018-12-03T09:49:04.658Z,2.2
2018-12-03T09:54:01.600Z,2.2
2018-12-03T09:58:58.555Z,2.2
2018-12-03T10:03:55.604Z,2.2
2018-12-03T10:08:51.829Z,2.2
2018-12-03T10:13:48.789Z,2.3
2018-12-03T10:18:45.706Z,2.2
2018-12-03T10:23:42.595Z,2.2
2018-12-03T10:28:39.174Z,2.3
2018-12-03T10:33:35.895Z,2.3
2018-12-03T10:38:32.984Z,2.3
2018-12-03T10:43:29.945Z,2.3
2018-12-03T10:48:27.330Z,2.5
2018-12-03T10:53:24.720Z,2.6
2018-12-03T10:58:21.801Z,2.7
2018-12-03T11:03:18.631Z,2.8
2018-12-03T11:08:15.721Z,3
2018-12-03T11:13:12.687Z,3.1
2018-12-03T11:18:09.830Z,3.2
2018-12-03T11:23:06.960Z,3.3
2018-12-03T11:28:04.128Z,3.5
2018-12-03T11:33:00.966Z,3.5
2018-12-03T11:37:56.814Z,3.6
2018-12-03T11:42:53.281Z,3.7
2018-12-03T11:47:50.411Z,3.7
2018-12-03T11:52:47.402Z,3.8
2018-12-03T11:57:44.249Z,3.9
2018-12-03T12:02:41.573Z,4
2018-12-03T12:07:42.279Z,4.1
2018-12-03T12:12:35.660Z,4.1
2018-12-03T12:17:32.792Z,4
2018-12-03T12:22:29.853Z,4
2018-12-03T12:27:26.728Z,3.9
2018-12-03T12:32:23.610Z,3.9
2018-12-03T12:37:20.838Z,3.9
2018-12-03T12:42:17.665Z,3.9
2018-12-03T12:47:14.472Z,3.7
2018-12-03T12:52:11.478Z,3.7
2018-12-03T12:57:08.292Z,3.6
2018-12-03T13:02:04.771Z,3.6
2018-12-03T13:07:01.927Z,3.6
2018-12-03T13:11:59.377Z,3.5
2018-12-03T13:16:55.657Z,3.4
2018-12-03T13:21:52.568Z,3.5
2018-12-03T13:26:49.322Z,3.4
2018-12-03T13:31:46.647Z,3.3
2018-12-03T13:36:43.813Z,3.3
2018-12-03T13:41:40.722Z,3.4
2018-12-03T13:46:37.202Z,3.3
2018-12-03T13:51:34.293Z,3.3
2018-12-03T13:56:31.166Z,3.3
2018-12-03T14:01:28.024Z,3.2
2018-12-03T14:06:24.869Z,3.1
2018-12-03T14:11:20.975Z,3.2
2018-12-03T14:16:18.450Z,3.1
2018-12-03T14:21:14.199Z,3
2018-12-03T14:26:10.966Z,3
2018-12-03T14:31:07.824Z,3
2018-12-03T14:36:04.756Z,3
2018-12-03T14:41:01.252Z,2.9
2018-12-03T14:45:58.284Z,2.7
2018-12-03T14:50:54.968Z,2.3
2018-12-03T14:55:51.734Z,2.7
2018-12-03T15:00:48.627Z,2.7
2018-12-03T15:05:45.508Z,2.7
2018-12-03T15:10:42.341Z,2.7
2018-12-03T15:15:39.295Z,2.7
2018-12-03T15:20:36.195Z,2.7
2018-12-03T15:25:32.984Z,2.7
2018-12-03T15:30:29.681Z,2.7
2018-12-03T15:35:26.979Z,2.7
2018-12-03T15:40:23.721Z,2.7
2018-12-03T15:45:20.587Z,2.7
2018-12-03T15:50:17.656Z,2.7
2018-12-03T15:55:14.695Z,2.6
2018-12-03T16:00:11.582Z,2.5
2018-12-03T16:05:08.368Z,2.7
2018-12-03T16:10:05.161Z,2.7
2018-12-03T16:15:02.355Z,2.7
2018-12-03T16:19:59.036Z,2.8
2018-12-03T16:24:55.897Z,2.9
2018-12-03T16:29:52.335Z,2.8
2018-12-03T16:34:49.935Z,2.8
2018-12-03T16:39:47.015Z,2.8
2018-12-03T16:44:42.772Z,-3.9
2018-12-03T16:49:39.438Z,2.9
2018-12-03T16:54:36.179Z,2.8
2018-12-03T16:59:33.331Z,2.7
2018-12-03T17:04:30.760Z,2.7
2018-12-03T17:09:27.790Z,2.6
2018-12-03T17:14:24.715Z,2.3
2018-12-03T17:19:21.435Z,2.5
2018-12-03T17:24:18.476Z,2.5
2018-12-03T17:29:15.271Z,2.5
2018-12-03T17:34:12.394Z,2.5
2018-12-03T17:39:09.250Z,2.5
2018-12-03T17:44:06.137Z,2.3
2018-12-03T17:49:02.976Z,2.4
2018-12-03T17:54:00.010Z,2.5
2018-12-03T17:58:57.046Z,2.4
2018-12-03T18:03:54.090Z,2.3
2018-12-03T18:08:50.901Z,2.3
2018-12-03T18:13:47.837Z,2.4
2018-12-03T18:18:45.240Z,2.2
2018-12-03T18:23:42.117Z,2.2
2018-12-03T18:28:39.145Z,2.2
2018-12-03T18:33:36.835Z,2.2
2018-12-03T18:38:34.884Z,2.3
2018-12-03T18:43:31.993Z,2.1
2018-12-03T18:48:29.157Z,2
2018-12-03T18:53:26.283Z,2.1
2018-12-03T18:58:22.085Z,2.1
2018-12-03T19:03:18.919Z,2.2
2018-12-03T19:08:15.894Z,2.2
2018-12-03T19:13:13.100Z,2.1
2018-12-03T19:18:10.130Z,2.2
2018-12-03T19:23:07.780Z,2.1
2018-12-03T19:28:04.582Z,2.1
2018-12-03T19:33:01.460Z,2
2018-12-03T19:37:58.461Z,2
2018-12-03T19:42:55.450Z,2
2018-12-03T19:47:52.157Z,2
2018-12-03T19:52:49.696Z,2
2018-12-03T19:57:46.732Z,2.1
2018-12-03T20:02:43.683Z,2.2
2018-12-03T20:07:41.032Z,2.2
2018-12-03T20:12:37.805Z,2.3
2018-12-03T20:17:34.742Z,2.2
2018-12-03T20:22:31.563Z,2.2
2018-12-03T20:27:28.439Z,2.2
2018-12-03T20:32:25.374Z,2.1
2018-12-03T20:37:22.566Z,2.1
2018-12-03T20:42:19.947Z,2.2
2018-12-03T20:47:17.400Z,2
2018-12-03T20:52:14.474Z,2.1
2018-12-03T20:57:11.600Z,2.2
2018-12-03T21:02:08.358Z,2.2
2018-12-03T21:07:05.218Z,1.7
2018-12-03T21:12:02.216Z,2
2018-12-03T21:16:59.143Z,2
2018-12-03T21:21:56.160Z,1.9
2018-12-03T21:26:53.529Z,1.8
2018-12-03T21:31:50.487Z,1
2018-12-03T21:36:47.471Z,2
2018-12-03T21:41:44.303Z,1.9
2018-12-03T21:46:41.230Z,1.9
2018-12-03T21:51:38.261Z,1.9
2018-12-03T21:56:35.259Z,2
2018-12-03T22:01:32.432Z,2
2018-12-03T22:06:29.381Z,2
2018-12-03T22:11:26.584Z,1.9
2018-12-03T22:16:23.424Z,1.8
2018-12-03T22:21:20.524Z,1.9
2018-12-03T22:26:17.570Z,1.8
2018-12-03T22:31:14.589Z,1.8
2018-12-03T22:36:11.655Z,1.8
2018-12-03T22:41:08.626Z,1.7
2018-12-03T22:46:05.318Z,1.7
2018-12-03T22:51:02.634Z,1.6
2018-12-03T22:55:59.562Z,1.7
2018-12-03T23:00:56.579Z,1.7
2018-12-03T23:05:53.510Z,1.8
2018-12-03T23:10:50.564Z,1.8
2018-12-03T23:15:47.557Z,1.8
2018-12-03T23:20:44.518Z,1.7
2018-12-03T23:25:41.399Z,1.7
2018-12-03T23:30:38.332Z,1.6
2018-12-03T23:35:35.409Z,1.6
2018-12-03T23:40:32.387Z,1.7
2018-12-03T23:45:29.606Z,1.8
2018-12-03T23:50:26.802Z,1.9
2018-12-03T23:55:23.959Z,1.9
